createdAt,value
2018-07-26T00:02:09.242Z,96880.34
2018-07-26T00:04:36.668Z,96878.80
2018-07-26T00:07:04.197Z,96876.23
2018-07-26T00:09:31.341Z,96872.97
2018-07-26T00:11:58.501Z,96876.25
2018-07-26T00:14:25.662Z,96872.31
2018-07-26T00:16:52.803Z,96879.62
2018-07-26T00:19:19.943Z,96873.05
2018-07-26T00:21:47.150Z,96874.59
2018-07-26T00:24:14.218Z,96870.99
2018-07-26T00:26:41.380Z,96875.94
2018-07-26T00:29:08.493Z,96874.33
2018-07-26T00:31:35.619Z,96876.14
2018-07-26T00:34:02.768Z,96877.70
2018-07-26T00:36:29.932Z,96872.31
2018-07-26T00:38:57.097Z,96878.86
2018-07-26T00:41:24.296Z,96846.80
2018-07-26T00:43:51.363Z,96874.59
2018-07-26T00:46:18.479Z,96877.20
2018-07-26T00:48:45.687Z,96878.64
2018-07-26T00:51:12.849Z,96874.34
2018-07-26T00:53:39.983Z,96870.06
2018-07-26T00:56:07.148Z,96867.72
2018-07-26T00:58:34.315Z,96869.55
2018-07-26T01:01:01.465Z,96870.97
2018-07-26T01:03:28.613Z,96868.00
2018-07-26T01:05:55.779Z,96871.73
2018-07-26T01:08:22.953Z,96865.08
2018-07-26T01:10:50.155Z,96867.56
2018-07-26T01:13:17.306Z,96865.72
2018-07-26T01:15:44.438Z,96863.81
2018-07-26T01:18:11.581Z,96866.79
2018-07-26T01:20:38.729Z,96863.09
2018-07-26T01:23:05.896Z,96866.34
2018-07-26T01:25:33.005Z,96868.48
2018-07-26T01:28:00.192Z,96864.14
2018-07-26T01:30:27.324Z,96871.72
2018-07-26T01:32:54.479Z,96870.85
2018-07-26T01:35:21.623Z,96872.33
2018-07-26T01:37:48.779Z,96874.27
2018-07-26T01:40:15.940Z,96868.20
2018-07-26T01:42:54.537Z,96865.81
2018-07-26T01:45:21.672Z,96871.30
2018-07-26T01:47:48.809Z,96873.12
2018-07-26T01:50:15.935Z,96876.83
2018-07-26T01:52:43.100Z,96873.83
2018-07-26T01:55:10.246Z,96867.13
2018-07-26T01:57:37.415Z,96864.48
2018-07-26T02:00:05.489Z,96876.58
2018-07-26T02:02:32.652Z,96870.79
2018-07-26T02:04:59.806Z,96869.80
2018-07-26T02:07:26.928Z,96870.67
2018-07-26T02:09:54.061Z,96874.44
2018-07-26T02:12:21.225Z,96871.16
2018-07-26T02:14:48.353Z,96873.16
2018-07-26T02:17:15.539Z,96866.45
2018-07-26T02:19:42.673Z,96868.44
2018-07-26T02:22:09.867Z,96870.98
2018-07-26T02:24:37.073Z,96866.67
2018-07-26T02:27:04.532Z,96868.36
2018-07-26T02:29:31.683Z,96864.66
2018-07-26T02:31:58.801Z,96866.60
2018-07-26T02:34:25.947Z,96855.61
2018-07-26T02:36:53.166Z,96865.91
2018-07-26T02:39:20.336Z,96869.25
2018-07-26T02:41:47.521Z,96862.84
2018-07-26T02:44:14.626Z,96861.88
2018-07-26T02:46:41.769Z,96859.25
2018-07-26T02:49:08.895Z,96860.16
2018-07-26T02:51:36.028Z,96859.41
2018-07-26T02:54:03.200Z,96857.16
2018-07-26T02:56:30.940Z,96867.02
2018-07-26T02:58:58.196Z,96866.08
2018-07-26T03:01:25.389Z,96867.94
2018-07-26T03:03:52.488Z,96863.53
2018-07-26T03:06:19.616Z,96863.04
2018-07-26T03:08:46.752Z,96873.09
2018-07-26T03:11:13.834Z,96876.34
2018-07-26T03:13:40.972Z,96877.39
2018-07-26T03:16:08.072Z,96872.96
2018-07-26T03:18:35.277Z,96881.23
2018-07-26T03:21:02.444Z,96886.63
2018-07-26T03:23:29.571Z,96880.72
2018-07-26T03:25:56.665Z,96847.53
2018-07-26T03:28:23.826Z,96880.52
2018-07-26T03:30:50.933Z,96879.02
2018-07-26T03:33:18.079Z,96882.23
2018-07-26T03:35:45.176Z,96881.72
2018-07-26T03:38:12.375Z,96885.14
2018-07-26T03:40:39.487Z,96888.95
2018-07-26T03:43:06.655Z,96881.03
2018-07-26T03:45:33.812Z,96885.55
2018-07-26T03:48:00.964Z,96879.84
2018-07-26T03:50:28.119Z,96875.73
2018-07-26T03:52:55.300Z,96877.14
2018-07-26T03:55:22.426Z,96874.05
2018-07-26T03:57:49.594Z,96883.91
2018-07-26T04:00:16.769Z,96886.94
2018-07-26T04:02:43.972Z,96883.33
2018-07-26T04:05:11.121Z,96893.58
2018-07-26T04:07:38.430Z,96894.65
2018-07-26T04:10:05.717Z,96893.91
2018-07-26T04:12:32.976Z,96890.97
2018-07-26T04:15:00.138Z,96885.42
2018-07-26T04:17:27.296Z,96889.17
2018-07-26T04:19:54.396Z,96888.95
2018-07-26T04:22:21.540Z,96884.27
2018-07-26T04:24:48.663Z,96886.42
2018-07-26T04:27:15.806Z,96886.80
2018-07-26T04:29:42.941Z,96889.47
2018-07-26T04:32:10.138Z,96893.65
2018-07-26T04:34:37.480Z,96897.83
2018-07-26T04:37:04.671Z,96897.46
2018-07-26T04:39:31.887Z,96892.52
2018-07-26T04:41:59.068Z,96892.63
2018-07-26T04:44:26.183Z,96887.20
2018-07-26T04:46:53.313Z,96890.64
2018-07-26T04:49:20.488Z,96899.93
2018-07-26T04:51:47.642Z,96903.74
2018-07-26T04:54:14.772Z,96898.19
2018-07-26T04:56:41.919Z,96903.05
2018-07-26T04:59:09.061Z,96907.45
2018-07-26T05:01:36.217Z,96899.98
2018-07-26T05:04:03.404Z,96906.20
2018-07-26T05:06:30.524Z,96907.34
2018-07-26T05:08:57.747Z,96905.84
2018-07-26T05:11:24.850Z,96903.97
2018-07-26T05:13:51.997Z,96910.53
2018-07-26T05:16:19.172Z,96915.92
2018-07-26T05:18:46.381Z,96915.17
2018-07-26T05:21:13.535Z,96906.73
2018-07-26T05:23:40.672Z,96907.98
2018-07-26T05:26:07.867Z,96909.73
2018-07-26T05:28:35.043Z,96919.30
2018-07-26T05:31:02.214Z,96913.56
2018-07-26T05:33:29.391Z,96916.67
2018-07-26T05:35:56.506Z,96923.70
2018-07-26T05:38:23.653Z,96924.92
2018-07-26T05:40:50.777Z,96925.23
2018-07-26T05:43:17.936Z,96927.31
2018-07-26T05:45:45.017Z,96930.40
2018-07-26T05:48:12.276Z,96936.78
2018-07-26T05:50:39.455Z,96930.09
2018-07-26T05:53:06.633Z,96940.92
2018-07-26T05:55:33.764Z,96944.81
2018-07-26T05:58:00.916Z,96948.66
2018-07-26T06:00:28.096Z,96949.80
2018-07-26T06:02:55.217Z,96948.67
2018-07-26T06:05:22.311Z,96953.88
2018-07-26T06:07:49.461Z,96955.23
2018-07-26T06:10:16.586Z,96956.38
2018-07-26T06:12:43.764Z,96962.50
2018-07-26T06:15:12.064Z,96965.16
2018-07-26T06:17:39.684Z,96933.90
2018-07-26T06:20:08.536Z,96967.16
2018-07-26T06:22:35.652Z,96970.77
2018-07-26T06:25:03.561Z,96958.05
2018-07-26T06:27:30.729Z,96952.11
2018-07-26T06:29:57.864Z,96954.77
2018-07-26T06:32:25.000Z,96953.03
2018-07-26T06:34:52.216Z,96953.58
2018-07-26T06:37:19.391Z,96956.98
2018-07-26T06:39:46.562Z,96960.34
2018-07-26T06:42:13.685Z,96955.27
2018-07-26T06:44:40.830Z,96950.02
2018-07-26T06:47:08.036Z,96953.94
2018-07-26T06:49:35.182Z,96954.48
2018-07-26T06:52:02.428Z,96952.63
2018-07-26T06:54:29.564Z,96954.31
2018-07-26T06:56:56.731Z,96954.76
2018-07-26T06:59:23.932Z,96952.52
2018-07-26T07:01:51.101Z,96954.31
2018-07-26T07:04:18.231Z,96955.45
2018-07-26T07:06:45.361Z,96957.81
2018-07-26T07:09:12.571Z,96958.63
2018-07-26T07:11:40.017Z,96955.41
2018-07-26T07:14:07.296Z,96960.18
2018-07-26T07:16:34.416Z,96962.23
2018-07-26T07:19:01.565Z,96961.98
2018-07-26T07:21:28.759Z,96958.32
2018-07-26T07:23:55.896Z,96961.30
2018-07-26T07:26:23.069Z,96953.23
2018-07-26T07:28:50.204Z,96959.23
2018-07-26T07:31:17.285Z,96965.78
2018-07-26T07:33:44.448Z,96956.28
2018-07-26T07:36:11.617Z,96947.64
2018-07-26T07:38:38.754Z,96950.87
2018-07-26T07:41:06.053Z,96951.80
2018-07-26T07:43:33.192Z,96949.11
2018-07-26T07:46:00.279Z,96946.77
2018-07-26T07:48:27.385Z,96944.75
2018-07-26T07:50:54.532Z,96946.85
2018-07-26T07:53:21.678Z,96945.66
2018-07-26T07:55:48.855Z,96944.97
2018-07-26T07:58:16.001Z,96948.69
2018-07-26T08:00:43.137Z,96946.00
2018-07-26T08:03:10.351Z,96945.98
2018-07-26T08:05:37.511Z,96950.20
2018-07-26T08:08:04.909Z,96948.53
2018-07-26T08:10:32.181Z,96942.59
2018-07-26T08:12:59.336Z,96939.98
2018-07-26T08:15:26.437Z,96940.27
2018-07-26T08:17:53.569Z,96940.53
2018-07-26T08:20:20.664Z,96938.32
2018-07-26T08:22:47.817Z,96950.36
2018-07-26T08:25:15.008Z,96944.05
2018-07-26T08:27:42.152Z,96944.98
2018-07-26T08:30:10.417Z,96943.23
2018-07-26T08:32:38.439Z,96945.34
2018-07-26T08:35:05.908Z,96948.16
2018-07-26T08:37:33.148Z,96942.75
2018-07-26T08:40:00.387Z,96945.20
2018-07-26T08:42:27.533Z,96943.43
2018-07-26T08:44:54.707Z,96951.27
2018-07-26T08:47:21.910Z,96949.93
2018-07-26T08:49:49.094Z,96945.78
2018-07-26T08:52:16.241Z,96943.02
2018-07-26T08:54:43.415Z,96947.50
2018-07-26T08:57:10.624Z,96950.16
2018-07-26T08:59:37.798Z,96950.57
2018-07-26T09:02:05.600Z,96948.88
2018-07-26T09:04:32.742Z,96943.95
2018-07-26T09:06:59.872Z,96949.47
2018-07-26T09:09:27.020Z,96945.93
2018-07-26T09:11:54.161Z,96941.48
2018-07-26T09:14:21.305Z,96947.02
2018-07-26T09:16:48.427Z,96941.70
2018-07-26T09:19:15.559Z,96945.52
2018-07-26T09:21:42.793Z,96938.25
2018-07-26T09:24:09.908Z,96934.53
2018-07-26T09:26:37.091Z,96941.14
2018-07-26T09:29:04.265Z,96935.30
2018-07-26T09:31:31.385Z,96934.74
2018-07-26T09:33:58.597Z,96935.66
2018-07-26T09:36:25.702Z,96929.77
2018-07-26T09:38:52.900Z,96929.42
2018-07-26T09:41:20.044Z,96926.44
2018-07-26T09:43:47.198Z,96923.02
2018-07-26T09:46:14.704Z,96919.34
2018-07-26T09:48:42.073Z,96911.93
2018-07-26T09:51:09.240Z,96912.20
2018-07-26T09:53:36.404Z,96918.70
2018-07-26T09:56:03.843Z,96926.69
2018-07-26T09:58:30.969Z,96924.56
2018-07-26T10:01:03.937Z,96912.25
2018-07-26T10:03:31.104Z,96910.83
2018-07-26T10:05:58.204Z,96908.56
2018-07-26T10:08:25.384Z,96905.88
2018-07-26T10:10:52.525Z,96908.91
2018-07-26T10:13:19.692Z,96907.09
2018-07-26T10:15:46.924Z,96902.64
2018-07-26T10:18:14.101Z,96909.94
2018-07-26T10:20:41.273Z,96901.58
2018-07-26T10:23:08.432Z,96897.81
2018-07-26T10:25:36.162Z,96900.61
2018-07-26T10:28:03.345Z,96843.77
2018-07-26T10:30:30.548Z,96891.22
2018-07-26T10:32:57.808Z,96895.22
2018-07-26T10:35:24.940Z,96894.88
2018-07-26T10:37:52.090Z,96890.67
2018-07-26T10:40:19.266Z,96892.69
2018-07-26T10:42:46.447Z,96885.21
2018-07-26T10:45:13.600Z,96883.16
2018-07-26T10:47:40.732Z,96889.66
2018-07-26T10:50:08.921Z,96885.16
2018-07-26T10:52:36.153Z,96879.59
2018-07-26T10:55:06.052Z,96883.77
2018-07-26T10:57:33.468Z,96885.67
2018-07-26T11:00:00.626Z,96880.19
2018-07-26T11:02:27.826Z,96874.92
2018-07-26T11:04:54.988Z,96878.45
2018-07-26T11:07:22.187Z,96872.62
2018-07-26T11:09:49.415Z,96878.80
2018-07-26T11:12:16.591Z,96876.29
2018-07-26T11:14:43.755Z,96877.25
2018-07-26T11:17:11.435Z,96873.12
2018-07-26T11:19:38.602Z,96876.66
2018-07-26T11:22:05.803Z,96865.48
2018-07-26T11:24:33.013Z,96867.83
2018-07-26T11:27:00.239Z,96860.05
2018-07-26T11:29:27.499Z,96856.69
2018-07-26T11:31:54.654Z,96855.95
2018-07-26T11:34:21.902Z,96856.34
2018-07-26T11:36:49.119Z,96861.05
2018-07-26T11:39:16.406Z,96853.31
2018-07-26T11:41:43.636Z,96857.55
2018-07-26T11:44:10.861Z,96845.89
2018-07-26T11:46:37.997Z,96838.92
2018-07-26T11:49:05.193Z,96838.82
2018-07-26T11:51:32.345Z,96844.23
2018-07-26T11:53:59.528Z,96840.45
2018-07-26T11:56:26.687Z,96836.41
2018-07-26T11:58:53.973Z,96834.56
2018-07-26T12:01:21.208Z,96829.99
2018-07-26T12:03:48.394Z,96828.14
2018-07-26T12:06:15.557Z,96819.02
2018-07-26T12:08:42.825Z,96818.66
2018-07-26T12:11:10.063Z,96823.80
2018-07-26T12:13:37.288Z,96820.17
2018-07-26T12:16:04.521Z,96818.88
2018-07-26T12:18:31.730Z,96806.99
2018-07-26T12:20:58.964Z,96815.41
2018-07-26T12:23:26.147Z,96810.14
2018-07-26T12:25:53.350Z,96803.26
2018-07-26T12:28:20.524Z,96781.77
2018-07-26T12:30:47.714Z,96800.45
2018-07-26T12:33:14.892Z,96801.99
2018-07-26T12:35:42.127Z,96801.02
2018-07-26T12:38:09.555Z,96796.71
2018-07-26T12:40:36.707Z,96798.20
2018-07-26T12:43:03.891Z,96795.42
2018-07-26T12:45:31.085Z,96796.27
2018-07-26T12:47:58.251Z,96789.29
2018-07-26T12:50:25.411Z,96785.05
2018-07-26T12:52:52.630Z,96785.09
2018-07-26T12:55:19.842Z,96775.02
2018-07-26T12:57:47.048Z,96775.61
2018-07-26T13:00:15.239Z,96766.63
2018-07-26T13:02:42.444Z,96763.03
2018-07-26T13:05:09.638Z,96763.63
2018-07-26T13:07:36.864Z,96760.56
2018-07-26T13:10:05.036Z,96757.41
2018-07-26T13:12:32.303Z,96751.17
2018-07-26T13:14:59.643Z,96752.22
2018-07-26T13:17:26.782Z,96746.48
2018-07-26T13:19:53.954Z,96742.56
2018-07-26T13:22:21.288Z,96747.39
2018-07-26T13:24:49.212Z,96747.07
2018-07-26T13:27:16.461Z,96738.41
2018-07-26T13:29:43.724Z,96737.09
2018-07-26T13:32:10.954Z,96735.22
2018-07-26T13:34:38.309Z,96729.73
2018-07-26T13:37:05.455Z,96731.37
2018-07-26T13:39:32.618Z,96733.50
2018-07-26T13:41:59.804Z,96722.73
2018-07-26T13:44:27.002Z,96722.94
2018-07-26T13:46:54.158Z,96721.77
2018-07-26T13:49:21.353Z,96722.64
2018-07-26T13:51:48.541Z,96721.13
2018-07-26T13:54:15.667Z,96721.70
2018-07-26T13:56:42.854Z,96722.11
2018-07-26T13:59:09.986Z,96716.73
2018-07-26T14:01:37.252Z,96720.83
2018-07-26T14:04:04.434Z,96716.41
2018-07-26T14:06:31.601Z,96717.45
2018-07-26T14:08:58.802Z,96716.66
2018-07-26T14:11:25.969Z,96718.63
2018-07-26T14:13:53.199Z,96723.69
2018-07-26T14:16:20.361Z,96699.98
2018-07-26T14:18:47.590Z,96722.22
2018-07-26T14:21:14.739Z,96721.57
2018-07-26T14:23:41.991Z,96718.13
2018-07-26T14:26:10.877Z,96707.61
2018-07-26T14:28:38.119Z,96709.67
2018-07-26T14:31:05.456Z,96702.46
2018-07-26T14:33:32.667Z,96702.53
2018-07-26T14:35:59.853Z,96698.55
2018-07-26T14:38:27.015Z,96702.44
2018-07-26T14:40:54.294Z,96698.80
2018-07-26T14:43:21.609Z,96694.04
2018-07-26T14:45:48.875Z,96691.69
2018-07-26T14:48:16.034Z,96688.27
2018-07-26T14:50:43.167Z,96687.98
2018-07-26T14:53:10.363Z,96684.06
2018-07-26T14:55:37.517Z,96691.98
2018-07-26T14:58:04.829Z,96682.61
2018-07-26T15:00:32.018Z,96686.38
2018-07-26T15:02:59.313Z,96682.15
2018-07-26T15:05:26.518Z,96680.99
2018-07-26T15:07:53.734Z,96679.32
2018-07-26T15:10:20.902Z,96676.89
2018-07-26T15:12:48.112Z,96680.84
2018-07-26T15:15:15.374Z,96684.64
2018-07-26T15:17:42.512Z,96683.11
2018-07-26T15:20:09.662Z,96682.22
2018-07-26T15:22:36.884Z,96687.50
2018-07-26T15:25:05.285Z,96677.66
2018-07-26T15:27:32.453Z,96688.28
2018-07-26T15:29:59.672Z,96687.39
2018-07-26T15:32:26.860Z,96684.20
2018-07-26T15:34:54.025Z,96682.36
2018-07-26T15:37:21.177Z,96682.14
2018-07-26T15:39:48.384Z,96675.07
2018-07-26T15:42:15.543Z,96683.29
2018-07-26T15:44:42.814Z,96676.05
2018-07-26T15:47:10.016Z,96682.17
2018-07-26T15:49:37.231Z,96674.70
2018-07-26T15:52:04.496Z,96675.05
2018-07-26T15:54:31.757Z,96670.94
2018-07-26T15:56:58.984Z,96673.80
2018-07-26T15:59:26.178Z,96664.44
2018-07-26T16:01:53.351Z,96667.81
2018-07-26T16:04:20.543Z,96657.49
2018-07-26T16:06:47.689Z,96657.81
2018-07-26T16:09:14.907Z,96661.03
2018-07-26T16:11:42.168Z,96667.02
2018-07-26T16:14:10.478Z,96658.97
2018-07-26T16:16:37.766Z,96662.32
2018-07-26T16:19:05.001Z,96656.39
2018-07-26T16:21:32.161Z,96653.36
2018-07-26T16:23:59.400Z,96658.52
2018-07-26T16:26:26.593Z,96658.52
2018-07-26T16:28:53.753Z,96663.51
2018-07-26T16:31:20.894Z,96661.98
2018-07-26T16:33:48.052Z,96664.09
2018-07-26T16:36:15.232Z,96667.72
2018-07-26T16:38:42.397Z,96672.55
2018-07-26T16:41:09.616Z,96668.42
2018-07-26T16:43:36.754Z,96672.78
2018-07-26T16:46:04.180Z,96674.41
2018-07-26T16:48:31.374Z,96672.09
2018-07-26T16:50:58.506Z,96669.36
2018-07-26T16:53:25.693Z,96672.89
2018-07-26T16:55:52.905Z,96678.67
2018-07-26T16:58:20.151Z,96677.28
2018-07-26T17:00:47.357Z,96671.56
2018-07-26T17:03:14.585Z,96673.16
2018-07-26T17:05:41.774Z,96619.99
2018-07-26T17:08:08.872Z,96680.81
2018-07-26T17:10:36.067Z,96682.61
2018-07-26T17:13:03.306Z,96678.90
2018-07-26T17:15:30.523Z,96677.16
2018-07-26T17:17:57.739Z,96680.67
2018-07-26T17:20:24.994Z,96682.22
2018-07-26T17:22:52.240Z,96689.14
2018-07-26T17:25:23.598Z,96690.92
2018-07-26T17:27:50.974Z,96690.02
2018-07-26T17:30:18.143Z,96689.25
2018-07-26T17:32:45.436Z,96688.11
2018-07-26T17:35:12.687Z,96689.31
2018-07-26T17:37:39.881Z,96688.72
2018-07-26T17:40:07.143Z,96695.64
2018-07-26T17:42:34.260Z,96696.52
2018-07-26T17:45:01.505Z,96696.14
2018-07-26T17:47:28.628Z,96701.91
2018-07-26T17:49:55.822Z,96700.45
2018-07-26T17:52:22.998Z,96698.52
2018-07-26T17:54:50.175Z,96700.53
2018-07-26T17:57:17.324Z,96703.22
2018-07-26T17:59:44.793Z,96703.58
2018-07-26T18:02:11.953Z,96706.13
2018-07-26T18:04:39.104Z,96701.09
2018-07-26T18:07:06.256Z,96709.61
2018-07-26T18:09:33.435Z,96708.37
2018-07-26T18:12:00.629Z,96702.89
2018-07-26T18:14:27.773Z,96710.86
2018-07-26T18:16:54.957Z,96708.34
2018-07-26T18:19:22.133Z,96710.46
2018-07-26T18:21:49.257Z,96713.17
2018-07-26T18:24:16.427Z,96714.80
2018-07-26T18:26:43.596Z,96712.73
2018-07-26T18:29:10.788Z,96710.63
2018-07-26T18:31:38.022Z,96713.35
2018-07-26T18:34:05.257Z,96718.16
2018-07-26T18:36:32.439Z,96722.13
2018-07-26T18:38:59.550Z,96721.92
2018-07-26T18:41:26.724Z,96722.45
2018-07-26T18:43:54.094Z,96726.76
2018-07-26T18:46:21.260Z,96729.66
2018-07-26T18:48:48.419Z,96728.43
2018-07-26T18:51:16.555Z,96731.13
2018-07-26T18:53:43.741Z,96732.91
2018-07-26T18:56:11.031Z,96740.04
2018-07-26T18:58:38.176Z,96743.45
2018-07-26T19:01:05.592Z,96745.94
2018-07-26T19:03:32.733Z,96749.98
2018-07-26T19:05:59.913Z,96746.10
2018-07-26T19:08:27.084Z,96750.61
2018-07-26T19:10:54.269Z,96757.39
2018-07-26T19:13:21.450Z,96761.55
2018-07-26T19:15:48.617Z,96760.12
2018-07-26T19:18:15.777Z,96769.19
2018-07-26T19:20:42.965Z,96773.62
2018-07-26T19:23:10.176Z,96777.36
2018-07-26T19:25:37.403Z,96784.23
2018-07-26T19:28:04.767Z,96782.77
2018-07-26T19:30:32.009Z,96788.55
2018-07-26T19:32:59.134Z,96794.22
2018-07-26T19:35:26.536Z,96800.60
2018-07-26T19:37:53.706Z,96795.59
2018-07-26T19:40:20.858Z,96803.56
2018-07-26T19:42:48.681Z,96802.33
2018-07-26T19:45:16.222Z,96804.56
2018-07-26T19:47:43.556Z,96805.61
2018-07-26T19:50:10.961Z,96810.41
2018-07-26T19:52:38.312Z,96813.17
2018-07-26T19:55:08.815Z,96811.47
2018-07-26T19:57:35.985Z,96810.38
2018-07-26T20:00:04.256Z,96815.67
2018-07-26T20:02:31.446Z,96820.16
2018-07-26T20:04:58.680Z,96816.27
2018-07-26T20:07:26.567Z,96820.08
2018-07-26T20:09:53.788Z,96817.03
2018-07-26T20:12:21.037Z,96820.75
2018-07-26T20:14:48.195Z,96820.92
2018-07-26T20:17:15.398Z,96827.16
2018-07-26T20:19:42.748Z,96822.80
2018-07-26T20:22:10.188Z,96818.80
2018-07-26T20:24:37.477Z,96821.91
2018-07-26T20:27:04.687Z,96821.80
2018-07-26T20:29:31.932Z,96825.20
2018-07-26T20:31:59.502Z,96826.72
2018-07-26T20:34:26.663Z,96831.37
2018-07-26T20:36:53.861Z,96833.08
2018-07-26T20:39:21.105Z,96825.00
2018-07-26T20:41:48.356Z,96830.72
2018-07-26T20:44:15.612Z,96827.12
2018-07-26T20:46:42.777Z,96823.88
2018-07-26T20:49:09.922Z,96831.60
2018-07-26T20:51:37.268Z,96831.42
2018-07-26T20:54:04.607Z,96828.09
2018-07-26T20:56:31.716Z,96831.78
2018-07-26T20:58:58.825Z,96828.84
2018-07-26T21:01:26.054Z,96824.48
2018-07-26T21:03:53.239Z,96830.66
2018-07-26T21:06:20.397Z,96835.57
2018-07-26T21:08:47.518Z,96828.69
2018-07-26T21:11:14.683Z,96828.16
2018-07-26T21:13:42.169Z,96829.81
2018-07-26T21:16:09.377Z,96829.20
2018-07-26T21:18:36.527Z,96829.95
2018-07-26T21:21:03.765Z,96833.56
2018-07-26T21:23:30.920Z,96826.75
2018-07-26T21:25:58.167Z,96833.45
2018-07-26T21:28:25.239Z,96834.69
2018-07-26T21:30:52.426Z,96833.05
2018-07-26T21:33:19.560Z,96839.41
2018-07-26T21:35:46.749Z,96840.15
2018-07-26T21:38:13.908Z,96839.31
2018-07-26T21:40:41.102Z,96840.70
2018-07-26T21:43:08.188Z,96839.73
2018-07-26T21:45:35.459Z,96841.11
2018-07-26T21:48:02.653Z,96844.10
2018-07-26T21:50:29.811Z,96846.58
2018-07-26T21:52:57.107Z,96849.97
2018-07-26T21:55:24.264Z,96841.91
2018-07-26T21:57:51.493Z,96840.94
2018-07-26T22:00:18.643Z,96849.44
2018-07-26T22:02:45.880Z,96842.53
2018-07-26T22:05:12.985Z,96845.91
2018-07-26T22:07:40.124Z,96841.55
2018-07-26T22:10:07.389Z,96847.84
2018-07-26T22:12:34.475Z,96844.78
2018-07-26T22:15:01.665Z,96849.09
2018-07-26T22:17:28.765Z,96849.52
2018-07-26T22:19:55.852Z,96846.27
2018-07-26T22:22:23.010Z,96842.14
2018-07-26T22:24:50.137Z,96851.49
2018-07-26T22:27:17.269Z,96843.61
2018-07-26T22:29:44.408Z,96841.92
2018-07-26T22:32:11.575Z,96840.70
2018-07-26T22:34:38.730Z,96843.23
2018-07-26T22:37:05.958Z,96838.72
2018-07-26T22:39:33.092Z,96839.80
2018-07-26T22:42:00.249Z,96840.93
2018-07-26T22:44:27.345Z,96832.19
2018-07-26T22:46:54.524Z,96832.24
2018-07-26T22:49:21.643Z,96829.89
2018-07-26T22:51:48.813Z,96831.75
2018-07-26T22:54:15.931Z,96835.91
2018-07-26T22:56:43.102Z,96833.38
2018-07-26T22:59:10.221Z,96839.95
2018-07-26T23:01:37.380Z,96848.22
2018-07-26T23:04:04.608Z,96837.93
2018-07-26T23:06:31.801Z,96836.38
2018-07-26T23:08:58.989Z,96831.84
2018-07-26T23:11:26.144Z,96836.63
2018-07-26T23:13:53.344Z,96838.95
2018-07-26T23:16:20.516Z,96838.03
2018-07-26T23:18:47.677Z,96846.02
2018-07-26T23:21:14.837Z,96829.67
2018-07-26T23:23:41.912Z,96834.19
2018-07-26T23:26:09.100Z,96839.11
2018-07-26T23:28:36.197Z,96849.77
2018-07-26T23:31:03.372Z,96843.91
2018-07-26T23:33:30.485Z,96846.29
2018-07-26T23:35:57.648Z,96845.53
2018-07-26T23:38:24.759Z,96841.95
2018-07-26T23:40:51.871Z,96838.70
2018-07-26T23:43:19.019Z,96853.12
2018-07-26T23:45:46.140Z,96845.02
2018-07-26T23:48:14.517Z,96850.76
2018-07-26T23:50:41.696Z,96844.98
2018-07-26T23:53:08.827Z,96847.70
2018-07-26T23:55:35.976Z,96846.72
2018-07-26T23:58:03.113Z,96840.38
